createdAt,value
2023-10-28T00:00:40.583Z,961.29
2023-10-28T00:01:40.528Z,961.28
2023-10-28T00:02:40.422Z,961.31
2023-10-28T00:03:40.354Z,961.33
2023-10-28T00:04:40.400Z,961.34
2023-10-28T00:05:40.166Z,961.32
2023-10-28T00:06:40.084Z,961.38
2023-10-28T00:07:40.050Z,961.42
2023-10-28T00:08:39.919Z,961.42
2023-10-28T00:09:39.937Z,961.38
2023-10-28T00:10:39.801Z,961.44
2023-10-28T00:11:39.681Z,961.49
2023-10-28T00:12:39.594Z,961.48
2023-10-28T00:13:39.540Z,961.46
2023-10-28T00:14:39.430Z,961.50
2023-10-28T00:15:39.367Z,961.48
2023-10-28T00:16:39.277Z,961.51
2023-10-28T00:17:39.216Z,961.51
2023-10-28T00:18:39.104Z,961.47
2023-10-28T00:19:39.050Z,961.48
2023-10-28T00:20:38.944Z,961.52
2023-10-28T00:21:38.868Z,961.51
2023-10-28T00:22:38.811Z,961.50
2023-10-28T00:23:38.697Z,961.55
2023-10-28T00:24:38.622Z,961.55
2023-10-28T00:25:38.665Z,961.53
2023-10-28T00:26:38.457Z,961.53
2023-10-28T00:27:38.378Z,961.55
2023-10-28T00:28:38.304Z,961.59
2023-10-28T00:29:38.338Z,961.60
2023-10-28T00:30:38.134Z,961.59
2023-10-28T00:31:38.078Z,961.59
2023-10-28T00:32:38.026Z,961.62
2023-10-28T00:33:37.887Z,961.59
2023-10-28T00:34:37.823Z,961.57
2023-10-28T00:35:37.737Z,961.55
2023-10-28T00:36:37.638Z,961.57
2023-10-28T00:37:37.613Z,961.60
2023-10-28T00:38:37.489Z,961.55
2023-10-28T00:39:37.397Z,961.55
2023-10-28T00:40:37.319Z,961.60
2023-10-28T00:41:37.237Z,961.55
2023-10-28T00:42:37.151Z,961.58
2023-10-28T00:43:37.088Z,961.55
2023-10-28T00:44:36.987Z,961.52
2023-10-28T00:45:36.934Z,961.50
2023-10-28T00:46:36.864Z,961.51
2023-10-28T00:47:36.766Z,961.47
2023-10-28T00:48:36.669Z,961.48
2023-10-28T00:49:36.607Z,961.52
2023-10-28T00:50:36.501Z,961.57
2023-10-28T00:51:36.419Z,961.56
2023-10-28T00:52:36.360Z,961.55
2023-10-28T00:53:36.254Z,961.53
2023-10-28T00:54:36.178Z,961.52
2023-10-28T00:55:36.120Z,961.59
2023-10-28T00:56:36.009Z,961.57
2023-10-28T00:57:35.938Z,961.58
2023-10-28T00:58:36.086Z,961.61
2023-10-28T00:59:35.765Z,961.55
2023-10-28T01:00:35.682Z,961.56
2023-10-28T01:01:35.616Z,961.55
2023-10-28T01:02:35.571Z,961.54
2023-10-28T01:03:35.548Z,961.53
2023-10-28T01:04:35.444Z,961.54
2023-10-28T01:05:35.866Z,961.55
2023-10-28T01:06:35.195Z,961.55
2023-10-28T01:07:35.149Z,961.60
2023-10-28T01:08:35.084Z,961.57
2023-10-28T01:09:34.952Z,961.69
2023-10-28T01:10:34.998Z,961.56
2023-10-28T01:11:34.794Z,961.61
2023-10-28T01:12:34.705Z,961.62
2023-10-28T01:13:34.633Z,961.65
2023-10-28T01:14:34.550Z,961.60
2023-10-28T01:15:34.487Z,961.65
2023-10-28T01:16:34.381Z,961.66
2023-10-28T01:17:34.392Z,961.66
2023-10-28T01:18:34.295Z,961.60
2023-10-28T01:19:34.141Z,961.65
2023-10-28T01:20:34.098Z,961.63
2023-10-28T01:21:33.973Z,961.63
2023-10-28T01:22:33.893Z,961.70
2023-10-28T01:23:33.814Z,961.68
2023-10-28T01:24:33.738Z,961.68
2023-10-28T01:25:33.648Z,961.64
2023-10-28T01:26:33.563Z,961.65
2023-10-28T01:27:33.494Z,961.71
2023-10-28T01:28:33.401Z,961.68
2023-10-28T01:29:33.412Z,961.66
2023-10-28T01:30:33.244Z,961.67
2023-10-28T01:31:33.175Z,961.63
2023-10-28T01:32:33.094Z,961.65
2023-10-28T01:33:32.995Z,961.66
2023-10-28T01:34:32.918Z,961.64
2023-10-28T01:35:32.879Z,961.69
2023-10-28T01:36:32.749Z,961.69
2023-10-28T01:37:32.670Z,961.70
2023-10-28T01:38:32.586Z,961.70
2023-10-28T01:39:32.516Z,961.75
2023-10-28T01:40:32.447Z,961.74
2023-10-28T01:41:32.345Z,961.75
2023-10-28T01:42:32.273Z,961.76
2023-10-28T01:43:32.183Z,961.72
2023-10-28T01:44:32.100Z,961.65
2023-10-28T01:45:32.151Z,961.72
2023-10-28T01:46:31.941Z,961.71
2023-10-28T01:47:31.878Z,961.72
2023-10-28T01:48:31.785Z,961.69
2023-10-28T01:49:31.702Z,961.70
2023-10-28T01:50:31.612Z,961.72
2023-10-28T01:51:31.531Z,961.68
2023-10-28T01:52:31.448Z,961.70
2023-10-28T01:53:31.380Z,961.74
2023-10-28T01:54:31.287Z,961.70
2023-10-28T01:55:31.214Z,961.73
2023-10-28T01:56:31.122Z,961.75
2023-10-28T01:57:31.047Z,961.72
2023-10-28T01:58:30.956Z,961.72
2023-10-28T01:59:30.884Z,961.76
2023-10-28T02:00:30.793Z,961.79
2023-10-28T02:01:30.858Z,961.77
2023-10-28T02:02:30.710Z,961.74
2023-10-28T02:03:30.618Z,961.75
2023-10-28T02:04:30.469Z,961.74
2023-10-28T02:05:30.391Z,961.81
2023-10-28T02:06:30.308Z,961.80
2023-10-28T02:07:30.238Z,961.79
2023-10-28T02:08:30.144Z,961.80
2023-10-28T02:09:30.078Z,961.75
2023-10-28T02:10:29.990Z,961.78
2023-10-28T02:11:29.901Z,961.75
2023-10-28T02:12:29.819Z,961.78
2023-10-28T02:13:29.737Z,961.80
2023-10-28T02:14:29.658Z,961.75
2023-10-28T02:15:29.599Z,961.79
2023-10-28T02:16:29.490Z,961.81
2023-10-28T02:17:29.531Z,961.79
2023-10-28T02:18:29.327Z,961.78
2023-10-28T02:19:29.246Z,961.81
2023-10-28T02:20:29.170Z,961.84
2023-10-28T02:21:29.079Z,961.82
2023-10-28T02:22:28.999Z,961.84
2023-10-28T02:23:28.922Z,961.84
2023-10-28T02:24:28.852Z,961.78
2023-10-28T02:25:28.761Z,961.78
2023-10-28T02:26:28.675Z,961.76
2023-10-28T02:27:28.608Z,961.81
2023-10-28T02:28:28.515Z,961.79
2023-10-28T02:29:28.431Z,961.81
2023-10-28T02:30:28.349Z,961.83
2023-10-28T02:31:28.305Z,961.84
2023-10-28T02:32:28.437Z,961.81
2023-10-28T02:33:28.257Z,961.83
2023-10-28T02:34:28.023Z,961.85
2023-10-28T02:35:27.956Z,961.84
2023-10-28T02:36:27.866Z,961.89
2023-10-28T02:37:27.775Z,961.88
2023-10-28T02:38:27.697Z,961.83
2023-10-28T02:39:27.619Z,961.83
2023-10-28T02:40:27.533Z,961.81
2023-10-28T02:41:27.453Z,961.83
2023-10-28T02:42:27.368Z,961.88
2023-10-28T02:43:27.287Z,961.86
2023-10-28T02:44:27.210Z,961.83
2023-10-28T02:45:27.173Z,961.87
2023-10-28T02:46:27.885Z,961.86
2023-10-28T02:47:28.262Z,961.92
2023-10-28T02:48:26.882Z,961.87
2023-10-28T02:49:26.890Z,961.89
2023-10-28T02:50:26.718Z,961.88
2023-10-28T02:51:26.633Z,961.86
2023-10-28T02:52:26.558Z,961.87
2023-10-28T02:53:26.475Z,961.90
2023-10-28T02:54:26.393Z,961.92
2023-10-28T02:55:26.326Z,961.98
2023-10-28T02:56:26.227Z,961.99
2023-10-28T02:57:26.146Z,962.02
2023-10-28T02:58:26.064Z,961.96
2023-10-28T02:59:25.982Z,961.94
2023-10-28T03:00:25.901Z,961.93
2023-10-28T03:01:25.855Z,961.92
2023-10-28T03:02:25.795Z,961.92
2023-10-28T03:03:25.815Z,961.91
2023-10-28T03:04:25.582Z,961.96
2023-10-28T03:05:25.590Z,961.96
2023-10-28T03:06:25.412Z,961.97
2023-10-28T03:07:25.365Z,962.00
2023-10-28T03:08:25.251Z,961.98
2023-10-28T03:09:25.225Z,962.00
2023-10-28T03:10:25.084Z,961.99
2023-10-28T03:11:25.006Z,961.92
2023-10-28T03:12:24.922Z,962.00
2023-10-28T03:13:24.844Z,961.92
2023-10-28T03:14:24.774Z,961.97
2023-10-28T03:15:24.710Z,962.01
2023-10-28T03:16:24.636Z,961.95
2023-10-28T03:17:24.513Z,961.97
2023-10-28T03:18:24.440Z,961.96
2023-10-28T03:19:24.349Z,962.01
2023-10-28T03:20:24.268Z,961.98
2023-10-28T03:21:24.182Z,961.97
2023-10-28T03:22:24.115Z,961.99
2023-10-28T03:23:24.029Z,962.02
2023-10-28T03:24:23.943Z,962.00
2023-10-28T03:25:23.860Z,962.05
2023-10-28T03:26:23.789Z,962.02
2023-10-28T03:27:23.713Z,961.96
2023-10-28T03:28:23.634Z,961.98
2023-10-28T03:29:23.538Z,961.98
2023-10-28T03:30:23.455Z,962.00
2023-10-28T03:31:25.268Z,962.03
2023-10-28T03:32:23.330Z,961.99
2023-10-28T03:33:23.232Z,962.03
2023-10-28T03:34:23.131Z,962.03
2023-10-28T03:35:23.044Z,962.03
2023-10-28T03:36:22.972Z,962.05
2023-10-28T03:37:22.887Z,962.13
2023-10-28T03:38:22.801Z,962.11
2023-10-28T03:39:22.726Z,962.17
2023-10-28T03:40:22.639Z,962.15
2023-10-28T03:41:22.555Z,962.11
2023-10-28T03:42:22.475Z,962.10
2023-10-28T03:43:22.391Z,962.12
2023-10-28T03:44:22.310Z,962.27
2023-10-28T03:45:22.231Z,962.25
2023-10-28T03:46:22.207Z,962.21
2023-10-28T03:47:22.115Z,962.26
2023-10-28T03:48:21.986Z,962.24
2023-10-28T03:49:21.903Z,962.22
2023-10-28T03:50:21.820Z,962.30
2023-10-28T03:51:21.740Z,962.28
2023-10-28T03:52:21.658Z,962.29
2023-10-28T03:53:21.584Z,962.28
2023-10-28T03:54:21.498Z,962.26
2023-10-28T03:55:21.413Z,962.29
2023-10-28T03:56:21.336Z,962.31
2023-10-28T03:57:21.258Z,962.31
2023-10-28T03:58:21.170Z,962.33
2023-10-28T03:59:21.088Z,962.30
2023-10-28T04:00:21.005Z,962.38
2023-10-28T04:01:20.949Z,962.36
2023-10-28T04:02:20.857Z,962.37
2023-10-28T04:03:20.784Z,962.37
2023-10-28T04:04:20.680Z,962.51
2023-10-28T04:05:20.638Z,962.40
2023-10-28T04:06:20.517Z,962.48
2023-10-28T04:07:20.435Z,962.52
2023-10-28T04:08:20.401Z,962.60
2023-10-28T04:09:20.354Z,962.53
2023-10-28T04:10:20.196Z,962.52
2023-10-28T04:11:20.105Z,962.59
2023-10-28T04:12:20.026Z,962.63
2023-10-28T04:13:20.913Z,962.60
2023-10-28T04:14:19.910Z,962.53
2023-10-28T04:15:19.783Z,962.61
2023-10-28T04:16:19.712Z,962.60
2023-10-28T04:17:19.615Z,962.58
2023-10-28T04:18:19.534Z,962.62
2023-10-28T04:19:19.451Z,962.66
2023-10-28T04:20:19.450Z,962.66
2023-10-28T04:21:19.286Z,962.62
2023-10-28T04:22:19.210Z,962.63
2023-10-28T04:23:19.163Z,962.64
2023-10-28T04:24:19.047Z,962.65
2023-10-28T04:25:19.058Z,962.71
2023-10-28T04:26:18.919Z,962.63
2023-10-28T04:27:18.799Z,962.62
2023-10-28T04:28:18.716Z,962.63
2023-10-28T04:29:18.675Z,962.59
2023-10-28T04:30:18.556Z,962.62
2023-10-28T04:31:18.484Z,962.68
2023-10-28T04:32:18.413Z,962.63
2023-10-28T04:33:18.308Z,962.66
2023-10-28T04:34:18.251Z,962.66
2023-10-28T04:35:26.986Z,962.68
2023-10-28T04:36:18.066Z,962.70
2023-10-28T04:37:17.987Z,962.70
2023-10-28T04:38:17.917Z,962.67
2023-10-28T04:39:17.820Z,962.67
2023-10-28T04:40:17.736Z,962.69
2023-10-28T04:41:17.780Z,962.70
2023-10-28T04:42:17.583Z,962.74
2023-10-28T04:43:17.495Z,962.76
2023-10-28T04:44:17.436Z,962.74
2023-10-28T04:45:17.338Z,962.77
2023-10-28T04:46:17.260Z,962.74
2023-10-28T04:47:17.241Z,962.72
2023-10-28T04:48:17.088Z,962.70
2023-10-28T04:49:17.006Z,962.69
2023-10-28T04:50:16.975Z,962.76
2023-10-28T04:51:16.841Z,962.71
2023-10-28T04:52:16.760Z,962.75
2023-10-28T04:53:16.718Z,962.72
2023-10-28T04:54:16.599Z,962.70
2023-10-28T04:55:16.518Z,962.70
2023-10-28T04:56:16.482Z,962.76
2023-10-28T04:57:16.352Z,962.80
2023-10-28T04:58:16.275Z,962.74
2023-10-28T04:59:16.219Z,962.71
2023-10-28T05:00:16.109Z,962.74
2023-10-28T05:01:16.047Z,962.83
2023-10-28T05:02:15.999Z,962.84
2023-10-28T05:03:16.987Z,962.81
2023-10-28T05:04:15.781Z,962.85
2023-10-28T05:05:15.803Z,962.85
2023-10-28T05:06:15.618Z,962.81
2023-10-28T05:07:15.539Z,962.87
2023-10-28T05:08:15.465Z,962.83
2023-10-28T05:09:15.367Z,962.87
2023-10-28T05:10:15.330Z,962.87
2023-10-28T05:11:15.280Z,962.83
2023-10-28T05:12:15.150Z,962.85
2023-10-28T05:13:15.136Z,962.85
2023-10-28T05:14:15.007Z,962.81
2023-10-28T05:15:14.877Z,962.86
2023-10-28T05:16:14.835Z,962.88
2023-10-28T05:17:14.740Z,962.89
2023-10-28T05:18:14.631Z,962.92
2023-10-28T05:19:14.549Z,962.93
2023-10-28T05:20:14.521Z,962.92
2023-10-28T05:21:14.426Z,962.93
2023-10-28T05:22:14.307Z,962.96
2023-10-28T05:23:14.293Z,962.94
2023-10-28T05:24:14.142Z,962.95
2023-10-28T05:25:14.080Z,962.94
2023-10-28T05:26:14.003Z,962.94
2023-10-28T05:27:13.903Z,962.96
2023-10-28T05:28:13.817Z,962.98
2023-10-28T05:29:13.852Z,962.97
2023-10-28T05:30:13.655Z,962.95
2023-10-28T05:31:13.573Z,962.92
2023-10-28T05:32:13.536Z,962.94
2023-10-28T05:33:13.439Z,962.97
2023-10-28T05:34:13.333Z,962.93
2023-10-28T05:35:13.263Z,963.00
2023-10-28T05:36:13.163Z,962.98
2023-10-28T05:37:13.084Z,962.99
2023-10-28T05:38:13.089Z,963.03
2023-10-28T05:39:12.927Z,963.06
2023-10-28T05:40:12.852Z,963.03
2023-10-28T05:41:12.822Z,963.08
2023-10-28T05:42:12.682Z,963.08
2023-10-28T05:43:12.594Z,963.09
2023-10-28T05:44:12.562Z,963.07
2023-10-28T05:45:12.522Z,963.13
2023-10-28T05:46:12.379Z,963.12
2023-10-28T05:47:12.294Z,963.12
2023-10-28T05:48:12.183Z,963.12
2023-10-28T05:49:12.103Z,963.21
2023-10-28T05:50:12.035Z,963.17
2023-10-28T05:51:11.950Z,963.11
2023-10-28T05:52:11.862Z,963.13
2023-10-28T05:53:11.798Z,963.11
2023-10-28T05:54:11.696Z,963.09
2023-10-28T05:55:11.618Z,963.14
2023-10-28T05:56:11.557Z,963.13
2023-10-28T05:57:11.454Z,963.16
2023-10-28T05:58:11.370Z,963.19
2023-10-28T05:59:11.311Z,963.19
2023-10-28T06:00:11.292Z,963.23
2023-10-28T06:01:11.157Z,963.22
2023-10-28T06:02:11.068Z,963.20
2023-10-28T06:03:11.017Z,963.24
2023-10-28T06:04:10.920Z,963.24
2023-10-28T06:05:10.843Z,963.23
2023-10-28T06:06:10.724Z,963.28
2023-10-28T06:07:10.636Z,963.32
2023-10-28T06:08:10.560Z,963.27
2023-10-28T06:09:10.473Z,963.30
2023-10-28T06:10:10.390Z,963.27
2023-10-28T06:11:10.349Z,963.27
2023-10-28T06:12:10.230Z,963.36
2023-10-28T06:13:10.214Z,963.35
2023-10-28T06:14:10.121Z,963.39
2023-10-28T06:15:10.902Z,963.31
2023-10-28T06:16:09.913Z,963.39
2023-10-28T06:17:09.953Z,963.36
2023-10-28T06:18:09.740Z,963.37
2023-10-28T06:19:09.654Z,963.34
2023-10-28T06:20:09.668Z,963.34
2023-10-28T06:21:09.507Z,963.33
2023-10-28T06:22:09.420Z,963.32
2023-10-28T06:23:09.371Z,963.36
2023-10-28T06:24:09.245Z,963.32
2023-10-28T06:25:09.162Z,963.35
2023-10-28T06:26:09.121Z,963.41
2023-10-28T06:27:08.998Z,963.40
2023-10-28T06:28:08.918Z,963.38
2023-10-28T06:29:08.912Z,963.40
2023-10-28T06:30:08.796Z,963.33
2023-10-28T06:31:08.712Z,963.34
2023-10-28T06:32:08.641Z,963.33
2023-10-28T06:33:08.617Z,963.32
2023-10-28T06:34:08.431Z,963.37
2023-10-28T06:35:08.414Z,963.38
2023-10-28T06:36:08.269Z,963.35
2023-10-28T06:37:08.199Z,963.38
2023-10-28T06:38:08.113Z,963.35
2023-10-28T06:39:08.025Z,963.37
2023-10-28T06:40:07.947Z,963.37
2023-10-28T06:41:07.874Z,963.38
2023-10-28T06:42:07.780Z,963.33
2023-10-28T06:43:07.699Z,963.36
2023-10-28T06:44:07.629Z,963.35
2023-10-28T06:45:07.536Z,963.39
2023-10-28T06:46:07.477Z,963.35
2023-10-28T06:47:07.430Z,963.31
2023-10-28T06:48:07.360Z,963.31
2023-10-28T06:49:07.217Z,963.33
2023-10-28T06:50:07.162Z,963.32
2023-10-28T06:51:07.047Z,963.37
2023-10-28T06:52:06.960Z,963.35
2023-10-28T06:53:06.974Z,963.37
2023-10-28T06:54:06.803Z,963.41
2023-10-28T06:55:06.717Z,963.37
2023-10-28T06:56:06.669Z,963.40
2023-10-28T06:57:06.555Z,963.43
2023-10-28T06:58:06.472Z,963.40
2023-10-28T06:59:06.495Z,963.41
2023-10-28T07:00:06.308Z,963.40
2023-10-28T07:01:06.235Z,963.45
2023-10-28T07:02:06.176Z,963.48
2023-10-28T07:03:06.140Z,963.54
2023-10-28T07:04:05.991Z,963.52
2023-10-28T07:05:05.923Z,963.59
2023-10-28T07:06:05.826Z,963.60
2023-10-28T07:07:05.748Z,963.57
2023-10-28T07:08:05.686Z,963.59
2023-10-28T07:09:05.585Z,963.52
2023-10-28T07:10:05.553Z,963.56
2023-10-28T07:11:05.428Z,963.56
2023-10-28T07:12:05.336Z,963.54
2023-10-28T07:13:05.261Z,963.53
2023-10-28T07:14:05.306Z,963.54
2023-10-28T07:15:05.099Z,963.60
2023-10-28T07:16:05.012Z,963.61
2023-10-28T07:17:05.014Z,963.61
2023-10-28T07:18:04.879Z,963.67
2023-10-28T07:19:04.768Z,963.67
2023-10-28T07:20:04.714Z,963.70
2023-10-28T07:21:04.705Z,963.67
2023-10-28T07:22:04.529Z,963.69
2023-10-28T07:23:04.541Z,963.74
2023-10-28T07:24:04.364Z,963.76
2023-10-28T07:25:04.285Z,963.83
2023-10-28T07:26:04.224Z,963.80
2023-10-28T07:27:04.126Z,963.85
2023-10-28T07:28:04.045Z,963.86
2023-10-28T07:29:03.972Z,963.88
2023-10-28T07:30:03.884Z,963.91
2023-10-28T07:31:03.825Z,963.91
2023-10-28T07:32:03.900Z,963.94
2023-10-28T07:33:03.743Z,963.95
2023-10-28T07:34:03.559Z,963.95
2023-10-28T07:35:03.547Z,964.03
2023-10-28T07:36:03.440Z,963.99
2023-10-28T07:37:03.319Z,964.01
2023-10-28T07:38:03.309Z,964.04
2023-10-28T07:39:03.157Z,964.08
2023-10-28T07:40:03.079Z,964.06
2023-10-28T07:41:03.035Z,964.07
2023-10-28T07:42:02.928Z,964.08
2023-10-28T07:43:02.838Z,964.10
2023-10-28T07:44:02.771Z,964.10
2023-10-28T07:45:02.672Z,964.16
2023-10-28T07:46:02.629Z,964.14
2023-10-28T07:47:03.431Z,964.17
2023-10-28T07:48:02.457Z,964.17
2023-10-28T07:49:02.353Z,964.18
2023-10-28T07:50:02.301Z,964.19
2023-10-28T07:51:02.193Z,964.21
2023-10-28T07:52:02.107Z,964.17
2023-10-28T07:53:02.189Z,964.18
2023-10-28T07:54:01.945Z,964.24
2023-10-28T07:55:01.868Z,964.31
2023-10-28T07:56:01.880Z,964.34
2023-10-28T07:57:01.703Z,964.34
2023-10-28T07:58:01.636Z,964.32
2023-10-28T07:59:01.563Z,964.34
2023-10-28T08:00:01.487Z,964.38
2023-10-28T08:01:01.418Z,964.37
2023-10-28T08:02:01.324Z,964.42
2023-10-28T08:03:01.262Z,964.46
2023-10-28T08:04:01.911Z,964.45
2023-10-28T08:05:01.116Z,964.38
2023-10-28T08:06:00.983Z,964.48
2023-10-28T08:07:00.905Z,964.52
2023-10-28T08:08:00.899Z,964.60
2023-10-28T08:09:00.838Z,964.61
2023-10-28T08:10:00.661Z,964.59
2023-10-28T08:11:00.628Z,964.61
2023-10-28T08:12:00.504Z,964.63
2023-10-28T08:13:00.416Z,964.61
2023-10-28T08:14:00.517Z,964.63
2023-10-28T08:15:00.312Z,964.63
2023-10-28T08:16:00.172Z,964.68
2023-10-28T08:17:00.146Z,964.70
2023-10-28T08:18:00.050Z,964.66
2023-10-28T08:18:59.950Z,964.69
2023-10-28T08:19:59.875Z,964.73
2023-10-28T08:20:59.769Z,964.70
2023-10-28T08:21:59.690Z,964.77
2023-10-28T08:22:59.633Z,964.77
2023-10-28T08:23:59.536Z,964.81
2023-10-28T08:24:59.551Z,964.81
2023-10-28T08:25:59.388Z,964.75
2023-10-28T08:26:59.376Z,964.79
2023-10-28T08:27:59.221Z,964.86
2023-10-28T08:28:59.157Z,964.83
2023-10-28T08:29:59.046Z,964.78
2023-10-28T08:30:59.008Z,964.79
2023-10-28T08:31:58.950Z,964.76
2023-10-28T08:32:58.836Z,964.75
2023-10-28T08:33:58.729Z,964.80
2023-10-28T08:34:58.683Z,964.82
2023-10-28T08:35:58.568Z,964.75
2023-10-28T08:36:58.493Z,964.73
2023-10-28T08:37:58.440Z,964.69
2023-10-28T08:38:58.326Z,964.66
2023-10-28T08:39:58.241Z,964.65
2023-10-28T08:40:58.226Z,964.65
2023-10-28T08:41:58.080Z,964.71
2023-10-28T08:42:58.001Z,964.70
2023-10-28T08:43:58.000Z,964.67
2023-10-28T08:44:57.843Z,964.68
2023-10-28T08:45:57.761Z,964.68
2023-10-28T08:46:57.839Z,964.72
2023-10-28T08:47:57.602Z,964.69
2023-10-28T08:48:57.518Z,964.63
2023-10-28T08:49:57.463Z,964.62
2023-10-28T08:50:57.354Z,964.64
2023-10-28T08:51:57.279Z,964.68
2023-10-28T08:52:58.031Z,964.75
2023-10-28T08:53:57.113Z,964.72
2023-10-28T08:54:57.036Z,964.77
2023-10-28T08:55:56.981Z,964.72
2023-10-28T08:56:56.974Z,964.77
2023-10-28T08:57:56.796Z,964.67
2023-10-28T08:58:56.754Z,964.74
2023-10-28T08:59:56.632Z,964.72
2023-10-28T09:00:58.302Z,964.73
2023-10-28T09:01:56.512Z,964.73
2023-10-28T09:02:56.451Z,964.69
2023-10-28T09:03:56.368Z,964.71
2023-10-28T09:04:56.247Z,964.65
2023-10-28T09:05:56.162Z,964.75
2023-10-28T09:06:56.070Z,964.69
2023-10-28T09:07:56.011Z,964.71
2023-10-28T09:08:55.906Z,964.66
2023-10-28T09:09:55.842Z,964.67
2023-10-28T09:10:55.798Z,964.64
2023-10-28T09:11:55.674Z,964.68
2023-10-28T09:12:55.701Z,964.70
2023-10-28T09:13:55.515Z,964.74
2023-10-28T09:14:55.429Z,964.70
2023-10-28T09:15:55.362Z,964.77
2023-10-28T09:16:55.290Z,964.78
2023-10-28T09:17:55.241Z,964.77
2023-10-28T09:18:55.108Z,964.81
2023-10-28T09:19:55.052Z,964.80
2023-10-28T09:20:54.956Z,964.77
2023-10-28T09:21:54.870Z,964.82
2023-10-28T09:22:54.828Z,964.77
2023-10-28T09:23:54.751Z,964.82
2023-10-28T09:24:54.630Z,964.85
2023-10-28T09:25:54.573Z,964.86
2023-10-28T09:26:54.471Z,964.84
2023-10-28T09:27:54.386Z,964.79
2023-10-28T09:28:54.422Z,964.83
2023-10-28T09:29:54.228Z,964.79
2023-10-28T09:30:54.157Z,964.90
2023-10-28T09:31:54.105Z,964.92
2023-10-28T09:32:54.055Z,964.88
2023-10-28T09:33:54.038Z,964.83
2023-10-28T09:34:53.877Z,964.77
2023-10-28T09:35:53.751Z,964.74
2023-10-28T09:36:53.673Z,964.77
2023-10-28T09:37:53.617Z,964.90
2023-10-28T09:38:53.543Z,964.82
2023-10-28T09:39:53.437Z,964.93
2023-10-28T09:40:53.371Z,964.92
2023-10-28T09:41:53.276Z,964.90
2023-10-28T09:42:53.209Z,964.85
2023-10-28T09:43:53.130Z,964.82
2023-10-28T09:44:53.041Z,964.84
2023-10-28T09:45:52.977Z,964.86
2023-10-28T09:46:53.043Z,964.75
2023-10-28T09:47:52.857Z,964.78
2023-10-28T09:48:52.740Z,964.85
2023-10-28T09:49:52.665Z,964.84
2023-10-28T09:50:52.566Z,964.85
2023-10-28T09:51:52.481Z,964.85
2023-10-28T09:52:52.423Z,964.87
2023-10-28T09:53:52.324Z,964.91
2023-10-28T09:54:52.250Z,964.85
2023-10-28T09:55:52.179Z,964.87
2023-10-28T09:56:52.093Z,965.07
2023-10-28T09:57:52.014Z,964.86
2023-10-28T09:58:51.972Z,964.90
2023-10-28T09:59:51.853Z,964.84
2023-10-28T10:00:51.796Z,964.86
2023-10-28T10:01:51.691Z,964.80
2023-10-28T10:02:51.629Z,964.81
2023-10-28T10:03:51.579Z,964.79
2023-10-28T10:04:51.460Z,964.79
2023-10-28T10:05:51.375Z,964.90
2023-10-28T10:06:51.300Z,964.88
2023-10-28T10:07:51.220Z,964.87
2023-10-28T10:08:51.161Z,964.90
2023-10-28T10:09:51.062Z,964.94
2023-10-28T10:10:50.982Z,964.91
2023-10-28T10:11:50.902Z,964.89
2023-10-28T10:12:50.824Z,964.89
2023-10-28T10:13:50.743Z,964.88
2023-10-28T10:14:50.665Z,964.83
2023-10-28T10:15:50.597Z,964.88
2023-10-28T10:16:50.523Z,964.77
2023-10-28T10:17:50.460Z,964.80
2023-10-28T10:18:50.359Z,964.79
2023-10-28T10:19:50.270Z,964.86
2023-10-28T10:20:50.222Z,964.76
2023-10-28T10:21:50.114Z,964.76
2023-10-28T10:22:50.037Z,964.76
2023-10-28T10:23:49.955Z,964.73
2023-10-28T10:24:49.881Z,964.72
2023-10-28T10:25:49.799Z,964.75
2023-10-28T10:26:49.722Z,964.66
2023-10-28T10:27:49.643Z,964.68
2023-10-28T10:28:49.567Z,964.63
2023-10-28T10:29:49.487Z,964.64
2023-10-28T10:30:49.412Z,964.72
2023-10-28T10:31:49.332Z,964.64
2023-10-28T10:32:49.296Z,964.64
2023-10-28T10:33:49.181Z,964.72
2023-10-28T10:34:49.126Z,964.67
2023-10-28T10:35:49.019Z,964.71
2023-10-28T10:36:49.161Z,964.70
2023-10-28T10:37:48.865Z,964.72
2023-10-28T10:38:48.786Z,964.73
2023-10-28T10:39:48.882Z,964.71
2023-10-28T10:40:48.702Z,964.71
2023-10-28T10:41:48.552Z,964.69
2023-10-28T10:42:48.476Z,964.71
2023-10-28T10:43:48.394Z,964.70
2023-10-28T10:44:48.328Z,964.70
2023-10-28T10:45:48.290Z,964.64
2023-10-28T10:46:48.162Z,964.63
2023-10-28T10:47:48.165Z,964.68
2023-10-28T10:48:48.509Z,964.65
2023-10-28T10:49:48.053Z,964.68
2023-10-28T10:50:47.857Z,964.72
2023-10-28T10:51:47.773Z,964.72
2023-10-28T10:52:47.692Z,964.78
2023-10-28T10:53:47.630Z,964.76
2023-10-28T10:54:47.541Z,964.74
2023-10-28T10:55:47.470Z,964.79
2023-10-28T10:56:47.386Z,964.80
2023-10-28T10:57:47.307Z,964.81
2023-10-28T10:58:47.229Z,964.75
2023-10-28T10:59:47.400Z,964.76
2023-10-28T11:00:47.068Z,964.81
2023-10-28T11:01:47.001Z,964.82
2023-10-28T11:02:47.066Z,964.86
2023-10-28T11:03:46.935Z,964.83
2023-10-28T11:04:46.768Z,964.80
2023-10-28T11:05:46.688Z,964.85
2023-10-28T11:06:46.601Z,964.80
2023-10-28T11:07:46.527Z,964.83
2023-10-28T11:08:46.447Z,964.82
2023-10-28T11:09:46.513Z,964.91
2023-10-28T11:10:46.327Z,964.87
2023-10-28T11:11:46.217Z,964.83
2023-10-28T11:12:46.134Z,964.82
2023-10-28T11:13:46.056Z,964.84
2023-10-28T11:14:45.978Z,964.88
2023-10-28T11:15:45.966Z,964.84
2023-10-28T11:16:45.821Z,964.82
2023-10-28T11:17:45.785Z,964.87
2023-10-28T11:18:45.666Z,964.84
2023-10-28T11:19:45.766Z,964.80
2023-10-28T11:20:45.518Z,964.81
2023-10-28T11:21:45.434Z,964.82
2023-10-28T11:22:45.355Z,964.75
2023-10-28T11:23:45.276Z,964.79
2023-10-28T11:24:45.197Z,964.79
2023-10-28T11:25:45.121Z,964.80
2023-10-28T11:26:45.040Z,964.81
2023-10-28T11:27:44.962Z,964.83
2023-10-28T11:28:44.884Z,964.81
2023-10-28T11:29:44.902Z,964.85
2023-10-28T11:30:44.728Z,964.85
2023-10-28T11:31:44.695Z,964.89
2023-10-28T11:32:44.586Z,964.96
2023-10-28T11:33:44.523Z,964.89
2023-10-28T11:34:44.415Z,964.86
2023-10-28T11:35:44.336Z,964.79
2023-10-28T11:36:44.262Z,964.81
2023-10-28T11:37:44.182Z,964.81
2023-10-28T11:38:44.101Z,964.82
2023-10-28T11:39:44.022Z,964.82
2023-10-28T11:40:43.941Z,964.79
2023-10-28T11:41:43.868Z,964.80
2023-10-28T11:42:43.785Z,964.85
2023-10-28T11:43:43.711Z,964.90
2023-10-28T11:44:43.628Z,964.86
2023-10-28T11:45:43.607Z,964.91
2023-10-28T11:46:43.479Z,964.87
2023-10-28T11:47:43.413Z,964.85
2023-10-28T11:48:43.316Z,964.83
2023-10-28T11:49:43.238Z,964.82
2023-10-28T11:50:43.161Z,964.84
2023-10-28T11:51:43.084Z,964.85
2023-10-28T11:52:43.006Z,964.90
2023-10-28T11:53:42.925Z,964.85
2023-10-28T11:54:42.846Z,964.85
2023-10-28T11:55:42.770Z,964.87
2023-10-28T11:56:42.767Z,964.89
2023-10-28T11:57:42.612Z,964.87
2023-10-28T11:58:42.532Z,964.88
2023-10-28T11:59:42.454Z,964.89
2023-10-28T12:00:42.375Z,964.85
2023-10-28T12:01:42.297Z,964.87
2023-10-28T12:02:42.265Z,964.91
2023-10-28T12:03:42.177Z,964.87
2023-10-28T12:04:42.055Z,964.86
2023-10-28T12:05:41.987Z,964.86
2023-10-28T12:06:41.902Z,964.90
2023-10-28T12:07:44.041Z,964.88
2023-10-28T12:08:41.757Z,964.90
2023-10-28T12:09:41.669Z,964.88
2023-10-28T12:10:41.585Z,964.90
2023-10-28T12:11:41.513Z,964.83
2023-10-28T12:12:41.437Z,964.86
2023-10-28T12:13:41.358Z,964.87
2023-10-28T12:14:42.409Z,964.90
2023-10-28T12:15:41.198Z,964.86
2023-10-28T12:16:41.136Z,964.86
2023-10-28T12:17:41.135Z,964.86
2023-10-28T12:18:40.961Z,964.84
2023-10-28T12:19:40.884Z,964.91
2023-10-28T12:20:40.807Z,964.91
2023-10-28T12:21:40.727Z,964.86
2023-10-28T12:22:40.649Z,964.91
2023-10-28T12:23:40.570Z,964.84
2023-10-28T12:24:40.501Z,964.83
2023-10-28T12:25:40.414Z,964.80
2023-10-28T12:26:40.336Z,964.84
2023-10-28T12:27:40.257Z,964.84